Aurora State Airport Aurora US
ICAO: KUAO
IATA: UAO
Category: Medium
Scheduled Services: No

Elevation: 200 ft
TransAlt. 18000 ft.

Airport Communications:
PORTLAND APP/DEP:126
ASOS:118.525
PORTLAND CLNC DEL:119.95
CTAF/UNICOM:122.7

KUAO Zoom In..

Runways:

(A) RW 17 length 5004 ft width 100 ft
LOC 111.15 / hdg 169

(B) RW 35 length 5004 ft width 100 ft
LOC 111.15 / hdg 349

Location; KUAO
Day. 19 / Time. 19.53 Zulu
* Altimeter: 30.22
* Temperature: 19° c. 66.2°f.
* Wind from: 330° Speed 06 kn.
Dewpoint: 10° c.
Visibility: 10 Statute Miles.
Clouds: Overcast 3900 ft.

KUAO 191953Z 33006KT 10SM OVC039 19/10 A3022 RMK AO2 SLP231 T01940100


Wind From 330°
Speed 06 kn.

 
 
jpsmedia.com for Web Design worldairports.se 2018   terms of use